sensor_id;sensor_type;location;lat;lon;timestamp;temperature;humidity
27573;DHT22;15009;53.082;8.768;2022-07-06T00:01:54;16.60;99.90
27573;DHT22;15009;53.082;8.768;2022-07-06T00:04:54;16.70;99.90
27573;DHT22;15009;53.082;8.768;2022-07-06T00:07:55;16.60;99.90
27573;DHT22;15009;53.082;8.768;2022-07-06T00:10:55;16.60;99.90
27573;DHT22;15009;53.082;8.768;2022-07-06T00:13:56;16.60;99.90
27573;DHT22;15009;53.082;8.768;2022-07-06T00:16:56;16.60;99.90
27573;DHT22;15009;53.082;8.768;2022-07-06T00:19:57;16.70;99.90
27573;DHT22;15009;53.082;8.768;2022-07-06T00:22:58;16.60;99.90
27573;DHT22;15009;53.082;8.768;2022-07-06T00:25:58;16.40;99.90
27573;DHT22;15009;53.082;8.768;2022-07-06T00:28:59;16.60;99.90
27573;DHT22;15009;53.082;8.768;2022-07-06T00:32:00;16.60;99.90
27573;DHT22;15009;53.082;8.768;2022-07-06T00:35:00;16.70;99.90
27573;DHT22;15009;53.082;8.768;2022-07-06T00:38:01;16.80;99.90
27573;DHT22;15009;53.082;8.768;2022-07-06T00:41:02;16.80;99.90
27573;DHT22;15009;53.082;8.768;2022-07-06T00:44:07;16.90;99.90
27573;DHT22;15009;53.082;8.768;2022-07-06T00:47:08;16.80;99.90
27573;DHT22;15009;53.082;8.768;2022-07-06T00:50:11;16.70;99.90
27573;DHT22;15009;53.082;8.768;2022-07-06T00:53:15;16.70;99.90
27573;DHT22;15009;53.082;8.768;2022-07-06T00:56:16;16.70;99.90
27573;DHT22;15009;53.082;8.768;2022-07-06T00:59:16;16.70;99.90
27573;DHT22;15009;53.082;8.768;2022-07-06T01:02:17;16.60;99.90
27573;DHT22;15009;53.082;8.768;2022-07-06T01:05:18;16.50;99.90
27573;DHT22;15009;53.082;8.768;2022-07-06T01:08:19;16.70;99.90
27573;DHT22;15009;53.082;8.768;2022-07-06T01:11:20;16.80;99.90
27573;DHT22;15009;53.082;8.768;2022-07-06T01:14:20;16.70;99.90
27573;DHT22;15009;53.082;8.768;2022-07-06T01:17:21;16.60;99.90
27573;DHT22;15009;53.082;8.768;2022-07-06T01:20:24;16.60;99.90
27573;DHT22;15009;53.082;8.768;2022-07-06T01:23:25;16.60;99.90
27573;DHT22;15009;53.082;8.768;2022-07-06T01:26:26;16.50;99.90
27573;DHT22;15009;53.082;8.768;2022-07-06T01:29:26;16.40;99.90
27573;DHT22;15009;53.082;8.768;2022-07-06T01:32:27;16.60;99.90
27573;DHT22;15009;53.082;8.768;2022-07-06T01:35:29;16.60;99.90
27573;DHT22;15009;53.082;8.768;2022-07-06T01:38:31;16.70;99.90
27573;DHT22;15009;53.082;8.768;2022-07-06T01:41:32;16.70;99.90
27573;DHT22;15009;53.082;8.768;2022-07-06T01:44:33;16.60;99.90
27573;DHT22;15009;53.082;8.768;2022-07-06T01:47:33;16.50;99.90
27573;DHT22;15009;53.082;8.768;2022-07-06T01:50:34;16.50;99.90
27573;DHT22;15009;53.082;8.768;2022-07-06T01:53:35;16.60;99.90
27573;DHT22;15009;53.082;8.768;2022-07-06T01:56:35;16.60;99.90
27573;DHT22;15009;53.082;8.768;2022-07-06T01:59:36;16.70;99.90
27573;DHT22;15009;53.082;8.768;2022-07-06T02:02:37;16.30;99.90
27573;DHT22;15009;53.082;8.768;2022-07-06T02:05:37;16.30;99.90
27573;DHT22;15009;53.082;8.768;2022-07-06T02:08:39;16.30;99.90
27573;DHT22;15009;53.082;8.768;2022-07-06T02:11:39;16.30;99.90
27573;DHT22;15009;53.082;8.768;2022-07-06T02:14:40;16.40;99.90
27573;DHT22;15009;53.082;8.768;2022-07-06T02:17:40;16.30;99.90
27573;DHT22;15009;53.082;8.768;2022-07-06T02:20:41;16.30;99.90
27573;DHT22;15009;53.082;8.768;2022-07-06T02:23:42;16.30;99.90
27573;DHT22;15009;53.082;8.768;2022-07-06T02:26:42;16.20;99.90
27573;DHT22;15009;53.082;8.768;2022-07-06T02:29:43;16.30;99.90
27573;DHT22;15009;53.082;8.768;2022-07-06T02:32:44;16.40;99.90
27573;DHT22;15009;53.082;8.768;2022-07-06T02:35:44;16.50;99.90
27573;DHT22;15009;53.082;8.768;2022-07-06T02:38:45;16.30;99.90
27573;DHT22;15009;53.082;8.768;2022-07-06T02:41:45;16.30;99.90
27573;DHT22;15009;53.082;8.768;2022-07-06T02:44:46;16.20;99.90
27573;DHT22;15009;53.082;8.768;2022-07-06T02:47:46;16.20;99.90
27573;DHT22;15009;53.082;8.768;2022-07-06T02:50:47;16.10;99.90
27573;DHT22;15009;53.082;8.768;2022-07-06T02:53:48;16.10;99.90
27573;DHT22;15009;53.082;8.768;2022-07-06T02:56:48;16.10;99.90
27573;DHT22;15009;53.082;8.768;2022-07-06T02:59:52;16.10;99.90
27573;DHT22;15009;53.082;8.768;2022-07-06T03:02:53;16.20;99.90
27573;DHT22;15009;53.082;8.768;2022-07-06T03:05:53;16.20;99.90
27573;DHT22;15009;53.082;8.768;2022-07-06T03:08:54;16.10;99.90
27573;DHT22;15009;53.082;8.768;2022-07-06T03:11:54;16.10;99.90
27573;DHT22;15009;53.082;8.768;2022-07-06T03:14:55;16.10;99.90
27573;DHT22;15009;53.082;8.768;2022-07-06T03:17:56;16.10;99.90
27573;DHT22;15009;53.082;8.768;2022-07-06T03:20:56;16.20;99.90
27573;DHT22;15009;53.082;8.768;2022-07-06T03:23:57;16.20;99.90
27573;DHT22;15009;53.082;8.768;2022-07-06T03:26:57;16.20;99.90
27573;DHT22;15009;53.082;8.768;2022-07-06T03:29:58;16.20;99.90
27573;DHT22;15009;53.082;8.768;2022-07-06T03:32:58;16.20;99.90
27573;DHT22;15009;53.082;8.768;2022-07-06T03:35:59;16.30;99.90
27573;DHT22;15009;53.082;8.768;2022-07-06T03:39:00;16.10;99.90
27573;DHT22;15009;53.082;8.768;2022-07-06T03:42:00;16.10;99.90
27573;DHT22;15009;53.082;8.768;2022-07-06T03:45:01;16.10;99.90
27573;DHT22;15009;53.082;8.768;2022-07-06T03:48:01;16.20;99.90
27573;DHT22;15009;53.082;8.768;2022-07-06T03:51:02;16.20;99.90
27573;DHT22;15009;53.082;8.768;2022-07-06T03:54:03;16.20;99.90
27573;DHT22;15009;53.082;8.768;2022-07-06T03:57:03;16.20;99.90
27573;DHT22;15009;53.082;8.768;2022-07-06T04:00:05;15.90;99.90
27573;DHT22;15009;53.082;8.768;2022-07-06T04:03:05;15.90;99.90
27573;DHT22;15009;53.082;8.768;2022-07-06T04:06:06;16.00;99.90
27573;DHT22;15009;53.082;8.768;2022-07-06T04:09:06;16.00;99.90
27573;DHT22;15009;53.082;8.768;2022-07-06T04:12:07;15.80;99.90
27573;DHT22;15009;53.082;8.768;2022-07-06T04:15:08;16.00;99.90
27573;DHT22;15009;53.082;8.768;2022-07-06T04:18:09;16.20;99.90
27573;DHT22;15009;53.082;8.768;2022-07-06T04:21:10;16.20;99.90
27573;DHT22;15009;53.082;8.768;2022-07-06T04:24:10;16.20;99.90
27573;DHT22;15009;53.082;8.768;2022-07-06T04:27:11;16.20;99.90
27573;DHT22;15009;53.082;8.768;2022-07-06T04:30:12;16.10;99.90
27573;DHT22;15009;53.082;8.768;2022-07-06T04:33:13;16.30;99.90
27573;DHT22;15009;53.082;8.768;2022-07-06T04:36:13;16.30;99.90
27573;DHT22;15009;53.082;8.768;2022-07-06T04:39:14;16.30;99.90
27573;DHT22;15009;53.082;8.768;2022-07-06T04:42:14;16.40;99.90
27573;DHT22;15009;53.082;8.768;2022-07-06T04:45:15;16.50;99.90
27573;DHT22;15009;53.082;8.768;2022-07-06T04:48:16;16.50;99.90
27573;DHT22;15009;53.082;8.768;2022-07-06T04:51:16;16.60;99.90
27573;DHT22;15009;53.082;8.768;2022-07-06T04:54:17;16.70;99.90
27573;DHT22;15009;53.082;8.768;2022-07-06T04:57:18;16.80;99.90
27573;DHT22;15009;53.082;8.768;2022-07-06T05:00:18;17.00;99.90
27573;DHT22;15009;53.082;8.768;2022-07-06T05:03:19;16.90;99.90
27573;DHT22;15009;53.082;8.768;2022-07-06T05:06:20;17.20;99.90
27573;DHT22;15009;53.082;8.768;2022-07-06T05:09:20;17.00;99.90
27573;DHT22;15009;53.082;8.768;2022-07-06T05:12:21;17.00;99.90
27573;DHT22;15009;53.082;8.768;2022-07-06T05:15:22;17.10;99.90
27573;DHT22;15009;53.082;8.768;2022-07-06T05:18:22;17.30;99.90
27573;DHT22;15009;53.082;8.768;2022-07-06T05:21:23;17.40;99.90
27573;DHT22;15009;53.082;8.768;2022-07-06T05:24:23;17.60;99.90
27573;DHT22;15009;53.082;8.768;2022-07-06T05:27:24;17.80;99.90
27573;DHT22;15009;53.082;8.768;2022-07-06T05:30:25;17.50;99.90
27573;DHT22;15009;53.082;8.768;2022-07-06T05:33:27;17.90;99.90
27573;DHT22;15009;53.082;8.768;2022-07-06T05:36:28;18.20;99.90
27573;DHT22;15009;53.082;8.768;2022-07-06T05:39:29;18.40;99.90
27573;DHT22;15009;53.082;8.768;2022-07-06T05:42:29;18.50;99.90
27573;DHT22;15009;53.082;8.768;2022-07-06T05:45:30;18.30;99.90
27573;DHT22;15009;53.082;8.768;2022-07-06T05:48:30;18.40;99.90
27573;DHT22;15009;53.082;8.768;2022-07-06T05:51:50;18.30;99.90
27573;DHT22;15009;53.082;8.768;2022-07-06T05:54:50;18.50;99.90
27573;DHT22;15009;53.082;8.768;2022-07-06T05:57:51;18.30;99.90
27573;DHT22;15009;53.082;8.768;2022-07-06T06:00:54;18.20;99.90
27573;DHT22;15009;53.082;8.768;2022-07-06T06:03:54;18.30;99.90
27573;DHT22;15009;53.082;8.768;2022-07-06T06:06:55;18.10;99.90
27573;DHT22;15009;53.082;8.768;2022-07-06T06:09:55;18.10;99.90
27573;DHT22;15009;53.082;8.768;2022-07-06T06:12:57;18.10;99.90
27573;DHT22;15009;53.082;8.768;2022-07-06T06:15:58;18.10;99.90
27573;DHT22;15009;53.082;8.768;2022-07-06T06:18:59;17.90;99.90
27573;DHT22;15009;53.082;8.768;2022-07-06T06:21:59;17.80;99.90
27573;DHT22;15009;53.082;8.768;2022-07-06T06:25:00;17.70;99.90
27573;DHT22;15009;53.082;8.768;2022-07-06T06:28:02;18.10;99.90
27573;DHT22;15009;53.082;8.768;2022-07-06T06:31:03;18.10;99.90
27573;DHT22;15009;53.082;8.768;2022-07-06T06:34:04;18.40;99.90
27573;DHT22;15009;53.082;8.768;2022-07-06T06:37:04;18.30;99.90
27573;DHT22;15009;53.082;8.768;2022-07-06T06:40:06;18.10;99.90
27573;DHT22;15009;53.082;8.768;2022-07-06T06:43:07;18.40;99.90
27573;DHT22;15009;53.082;8.768;2022-07-06T06:46:08;18.60;99.90
27573;DHT22;15009;53.082;8.768;2022-07-06T06:49:08;19.10;99.90
27573;DHT22;15009;53.082;8.768;2022-07-06T06:52:09;20.40;99.90
27573;DHT22;15009;53.082;8.768;2022-07-06T06:55:10;22.10;99.90
27573;DHT22;15009;53.082;8.768;2022-07-06T06:58:10;22.20;99.90
27573;DHT22;15009;53.082;8.768;2022-07-06T07:01:11;22.70;99.90
27573;DHT22;15009;53.082;8.768;2022-07-06T07:04:11;23.70;99.90
27573;DHT22;15009;53.082;8.768;2022-07-06T07:07:12;23.80;99.10
27573;DHT22;15009;53.082;8.768;2022-07-06T07:10:13;23.90;97.10
27573;DHT22;15009;53.082;8.768;2022-07-06T07:13:13;24.00;96.60
27573;DHT22;15009;53.082;8.768;2022-07-06T07:16:14;24.20;95.90
27573;DHT22;15009;53.082;8.768;2022-07-06T07:19:15;23.90;95.20
27573;DHT22;15009;53.082;8.768;2022-07-06T07:22:15;23.80;94.70
27573;DHT22;15009;53.082;8.768;2022-07-06T07:25:16;23.20;94.90
27573;DHT22;15009;53.082;8.768;2022-07-06T07:28:16;23.20;95.00
27573;DHT22;15009;53.082;8.768;2022-07-06T07:31:17;21.40;97.20
27573;DHT22;15009;53.082;8.768;2022-07-06T07:34:18;21.10;99.00
27573;DHT22;15009;53.082;8.768;2022-07-06T07:37:18;20.70;99.90
27573;DHT22;15009;53.082;8.768;2022-07-06T07:40:19;20.20;99.90
27573;DHT22;15009;53.082;8.768;2022-07-06T07:43:20;19.90;99.90
27573;DHT22;15009;53.082;8.768;2022-07-06T07:46:20;19.50;99.90
27573;DHT22;15009;53.082;8.768;2022-07-06T07:49:21;19.50;99.90
27573;DHT22;15009;53.082;8.768;2022-07-06T07:52:21;19.30;99.90
27573;DHT22;15009;53.082;8.768;2022-07-06T07:55:22;19.40;99.90
27573;DHT22;15009;53.082;8.768;2022-07-06T07:58:23;19.20;99.90
27573;DHT22;15009;53.082;8.768;2022-07-06T08:01:23;19.20;99.90
27573;DHT22;15009;53.082;8.768;2022-07-06T08:04:24;19.30;99.90
27573;DHT22;15009;53.082;8.768;2022-07-06T08:07:24;19.50;99.90
27573;DHT22;15009;53.082;8.768;2022-07-06T08:10:25;20.00;99.90
27573;DHT22;15009;53.082;8.768;2022-07-06T08:13:25;20.60;99.90
27573;DHT22;15009;53.082;8.768;2022-07-06T08:16:26;21.20;99.90
27573;DHT22;15009;53.082;8.768;2022-07-06T08:19:26;21.90;98.40
27573;DHT22;15009;53.082;8.768;2022-07-06T08:22:27;21.90;98.20
27573;DHT22;15009;53.082;8.768;2022-07-06T08:25:30;21.80;97.40
27573;DHT22;15009;53.082;8.768;2022-07-06T08:28:31;21.70;96.90
27573;DHT22;15009;53.082;8.768;2022-07-06T08:31:32;21.30;97.90
27573;DHT22;15009;53.082;8.768;2022-07-06T08:34:34;21.90;97.10
27573;DHT22;15009;53.082;8.768;2022-07-06T08:37:35;21.90;96.00
27573;DHT22;15009;53.082;8.768;2022-07-06T08:40:38;22.40;95.60
27573;DHT22;15009;53.082;8.768;2022-07-06T08:43:39;22.90;94.00
27573;DHT22;15009;53.082;8.768;2022-07-06T08:46:40;23.00;93.70
27573;DHT22;15009;53.082;8.768;2022-07-06T08:49:42;22.30;94.40
27573;DHT22;15009;53.082;8.768;2022-07-06T08:52:43;22.50;93.40
27573;DHT22;15009;53.082;8.768;2022-07-06T08:55:44;22.50;93.00
27573;DHT22;15009;53.082;8.768;2022-07-06T08:58:44;22.70;93.00
27573;DHT22;15009;53.082;8.768;2022-07-06T09:01:45;22.50;93.00
27573;DHT22;15009;53.082;8.768;2022-07-06T09:04:48;22.20;93.30
27573;DHT22;15009;53.082;8.768;2022-07-06T09:07:52;22.30;91.90
27573;DHT22;15009;53.082;8.768;2022-07-06T09:10:53;23.10;91.50
27573;DHT22;15009;53.082;8.768;2022-07-06T09:13:53;23.50;91.20
27573;DHT22;15009;53.082;8.768;2022-07-06T09:17:05;23.20;90.70
27573;DHT22;15009;53.082;8.768;2022-07-06T09:20:08;22.50;91.50
27573;DHT22;15009;53.082;8.768;2022-07-06T09:23:09;22.10;92.10
27573;DHT22;15009;53.082;8.768;2022-07-06T09:26:11;21.80;92.90
27573;DHT22;15009;53.082;8.768;2022-07-06T09:29:11;21.10;94.60
27573;DHT22;15009;53.082;8.768;2022-07-06T09:32:14;20.90;96.10
27573;DHT22;15009;53.082;8.768;2022-07-06T09:35:30;21.30;96.40
27573;DHT22;15009;53.082;8.768;2022-07-06T09:38:32;21.50;94.90
27573;DHT22;15009;53.082;8.768;2022-07-06T09:41:32;21.60;94.70
27573;DHT22;15009;53.082;8.768;2022-07-06T09:44:38;21.50;93.90
27573;DHT22;15009;53.082;8.768;2022-07-06T09:47:46;21.50;93.70
27573;DHT22;15009;53.082;8.768;2022-07-06T09:50:49;21.50;93.90
27573;DHT22;15009;53.082;8.768;2022-07-06T09:53:51;21.90;93.10
27573;DHT22;15009;53.082;8.768;2022-07-06T09:56:54;22.50;91.80
27573;DHT22;15009;53.082;8.768;2022-07-06T09:59:55;23.10;91.50
27573;DHT22;15009;53.082;8.768;2022-07-06T10:02:56;23.40;91.40
27573;DHT22;15009;53.082;8.768;2022-07-06T10:05:57;23.70;89.00
27573;DHT22;15009;53.082;8.768;2022-07-06T10:08:58;23.60;87.60
27573;DHT22;15009;53.082;8.768;2022-07-06T10:12:02;23.70;87.80
27573;DHT22;15009;53.082;8.768;2022-07-06T10:15:03;23.30;87.60
27573;DHT22;15009;53.082;8.768;2022-07-06T10:18:06;23.90;87.10
27573;DHT22;15009;53.082;8.768;2022-07-06T10:21:07;23.60;88.70
27573;DHT22;15009;53.082;8.768;2022-07-06T10:24:10;23.60;87.70
27573;DHT22;15009;53.082;8.768;2022-07-06T10:27:11;23.90;87.00
27573;DHT22;15009;53.082;8.768;2022-07-06T10:30:14;23.30;86.80
27573;DHT22;15009;53.082;8.768;2022-07-06T10:33:15;22.90;87.10
27573;DHT22;15009;53.082;8.768;2022-07-06T10:36:16;22.70;89.00
27573;DHT22;15009;53.082;8.768;2022-07-06T10:39:32;23.00;87.60
27573;DHT22;15009;53.082;8.768;2022-07-06T10:43:00;23.20;87.20
27573;DHT22;15009;53.082;8.768;2022-07-06T10:46:13;22.30;90.30
27573;DHT22;15009;53.082;8.768;2022-07-06T10:49:16;22.30;90.80
27573;DHT22;15009;53.082;8.768;2022-07-06T10:52:17;22.10;91.20
27573;DHT22;15009;53.082;8.768;2022-07-06T10:55:29;22.30;91.10
27573;DHT22;15009;53.082;8.768;2022-07-06T11:02:18;22.80;90.90
27573;DHT22;15009;53.082;8.768;2022-07-06T11:05:41;22.70;90.00
27573;DHT22;15009;53.082;8.768;2022-07-06T11:08:43;22.80;90.30
27573;DHT22;15009;53.082;8.768;2022-07-06T11:11:44;22.30;91.00
27573;DHT22;15009;53.082;8.768;2022-07-06T11:14:49;21.60;91.90
27573;DHT22;15009;53.082;8.768;2022-07-06T11:18:11;21.80;92.50
27573;DHT22;15009;53.082;8.768;2022-07-06T11:21:19;22.00;92.50
27573;DHT22;15009;53.082;8.768;2022-07-06T11:24:23;21.90;92.30
27573;DHT22;15009;53.082;8.768;2022-07-06T11:27:23;22.40;92.10
27573;DHT22;15009;53.082;8.768;2022-07-06T11:30:25;22.70;91.60
27573;DHT22;15009;53.082;8.768;2022-07-06T11:33:29;22.60;90.60
27573;DHT22;15009;53.082;8.768;2022-07-06T11:36:30;22.30;90.00
27573;DHT22;15009;53.082;8.768;2022-07-06T11:39:32;22.50;90.60
27573;DHT22;15009;53.082;8.768;2022-07-06T11:42:33;22.80;89.50
27573;DHT22;15009;53.082;8.768;2022-07-06T11:45:36;22.30;89.40
27573;DHT22;15009;53.082;8.768;2022-07-06T11:48:37;22.50;90.50
27573;DHT22;15009;53.082;8.768;2022-07-06T11:51:40;22.70;87.10
27573;DHT22;15009;53.082;8.768;2022-07-06T11:54:41;22.40;87.00
27573;DHT22;15009;53.082;8.768;2022-07-06T11:57:41;22.70;88.60
27573;DHT22;15009;53.082;8.768;2022-07-06T12:00:42;22.80;87.80
27573;DHT22;15009;53.082;8.768;2022-07-06T12:03:44;22.70;88.40
27573;DHT22;15009;53.082;8.768;2022-07-06T12:06:45;22.60;88.30
27573;DHT22;15009;53.082;8.768;2022-07-06T12:09:47;22.50;89.50
27573;DHT22;15009;53.082;8.768;2022-07-06T12:12:47;22.80;88.10
27573;DHT22;15009;53.082;8.768;2022-07-06T12:15:48;23.30;89.00
27573;DHT22;15009;53.082;8.768;2022-07-06T12:18:50;23.20;87.90
27573;DHT22;15009;53.082;8.768;2022-07-06T12:21:51;23.10;88.30
27573;DHT22;15009;53.082;8.768;2022-07-06T12:24:53;23.50;88.50
27573;DHT22;15009;53.082;8.768;2022-07-06T12:27:54;23.50;85.00
27573;DHT22;15009;53.082;8.768;2022-07-06T12:30:54;23.40;85.90
27573;DHT22;15009;53.082;8.768;2022-07-06T12:33:58;23.20;86.80
27573;DHT22;15009;53.082;8.768;2022-07-06T12:36:59;23.10;86.90
27573;DHT22;15009;53.082;8.768;2022-07-06T12:40:12;22.70;87.80
27573;DHT22;15009;53.082;8.768;2022-07-06T12:43:13;22.50;90.00
27573;DHT22;15009;53.082;8.768;2022-07-06T12:46:32;22.60;90.20
27573;DHT22;15009;53.082;8.768;2022-07-06T12:49:33;22.30;90.20
27573;DHT22;15009;53.082;8.768;2022-07-06T12:52:34;22.50;88.60
27573;DHT22;15009;53.082;8.768;2022-07-06T12:55:36;22.30;89.80
27573;DHT22;15009;53.082;8.768;2022-07-06T12:58:37;22.50;90.10
27573;DHT22;15009;53.082;8.768;2022-07-06T13:01:47;22.60;89.50
27573;DHT22;15009;53.082;8.768;2022-07-06T13:05:06;22.40;90.00
27573;DHT22;15009;53.082;8.768;2022-07-06T13:08:06;21.90;90.50
27573;DHT22;15009;53.082;8.768;2022-07-06T13:11:09;22.60;91.00
27573;DHT22;15009;53.082;8.768;2022-07-06T13:14:09;22.90;89.80
27573;DHT22;15009;53.082;8.768;2022-07-06T13:17:10;23.00;89.90
27573;DHT22;15009;53.082;8.768;2022-07-06T13:20:12;23.20;89.40
27573;DHT22;15009;53.082;8.768;2022-07-06T13:23:13;23.10;87.90
27573;DHT22;15009;53.082;8.768;2022-07-06T13:26:14;22.90;87.40
27573;DHT22;15009;53.082;8.768;2022-07-06T13:29:15;22.60;86.20
27573;DHT22;15009;53.082;8.768;2022-07-06T13:32:15;22.70;86.00
27573;DHT22;15009;53.082;8.768;2022-07-06T13:35:16;22.90;85.70
27573;DHT22;15009;53.082;8.768;2022-07-06T13:38:18;23.30;85.60
27573;DHT22;15009;53.082;8.768;2022-07-06T13:41:19;23.10;84.50
27573;DHT22;15009;53.082;8.768;2022-07-06T13:44:19;22.70;84.60
27573;DHT22;15009;53.082;8.768;2022-07-06T13:47:20;22.50;84.70
27573;DHT22;15009;53.082;8.768;2022-07-06T13:50:20;22.10;83.30
27573;DHT22;15009;53.082;8.768;2022-07-06T13:53:24;22.10;85.10
27573;DHT22;15009;53.082;8.768;2022-07-06T13:56:26;21.90;83.30
27573;DHT22;15009;53.082;8.768;2022-07-06T13:59:26;21.70;84.70
27573;DHT22;15009;53.082;8.768;2022-07-06T14:02:27;21.80;84.20
27573;DHT22;15009;53.082;8.768;2022-07-06T14:05:28;22.10;84.70
27573;DHT22;15009;53.082;8.768;2022-07-06T14:08:30;22.50;82.80
27573;DHT22;15009;53.082;8.768;2022-07-06T14:11:30;22.70;80.60
27573;DHT22;15009;53.082;8.768;2022-07-06T14:14:31;22.80;79.60
27573;DHT22;15009;53.082;8.768;2022-07-06T14:17:32;22.60;79.20
27573;DHT22;15009;53.082;8.768;2022-07-06T14:20:32;22.80;79.10
27573;DHT22;15009;53.082;8.768;2022-07-06T14:23:33;22.80;79.00
27573;DHT22;15009;53.082;8.768;2022-07-06T14:26:33;22.40;79.10
27573;DHT22;15009;53.082;8.768;2022-07-06T14:29:34;22.10;78.60
27573;DHT22;15009;53.082;8.768;2022-07-06T14:32:35;22.30;78.50
27573;DHT22;15009;53.082;8.768;2022-07-06T14:35:36;21.90;78.40
27573;DHT22;15009;53.082;8.768;2022-07-06T14:38:37;21.70;79.50
27573;DHT22;15009;53.082;8.768;2022-07-06T14:41:38;21.80;79.70
27573;DHT22;15009;53.082;8.768;2022-07-06T14:44:39;22.00;80.00
27573;DHT22;15009;53.082;8.768;2022-07-06T14:47:40;21.90;81.30
27573;DHT22;15009;53.082;8.768;2022-07-06T14:50:40;22.10;81.60
27573;DHT22;15009;53.082;8.768;2022-07-06T14:53:41;22.20;81.20
27573;DHT22;15009;53.082;8.768;2022-07-06T14:56:41;22.10;80.90
27573;DHT22;15009;53.082;8.768;2022-07-06T14:59:43;22.30;81.30
27573;DHT22;15009;53.082;8.768;2022-07-06T15:02:44;22.50;81.40
27573;DHT22;15009;53.082;8.768;2022-07-06T15:05:44;22.50;80.60
27573;DHT22;15009;53.082;8.768;2022-07-06T15:08:47;22.70;80.80
27573;DHT22;15009;53.082;8.768;2022-07-06T15:11:48;22.90;80.40
27573;DHT22;15009;53.082;8.768;2022-07-06T15:14:49;22.80;80.40
27573;DHT22;15009;53.082;8.768;2022-07-06T15:17:49;22.70;81.50
27573;DHT22;15009;53.082;8.768;2022-07-06T15:20:50;22.60;81.20
27573;DHT22;15009;53.082;8.768;2022-07-06T15:23:51;22.50;81.80
27573;DHT22;15009;53.082;8.768;2022-07-06T15:26:52;22.50;82.70
27573;DHT22;15009;53.082;8.768;2022-07-06T15:29:53;22.30;83.60
27573;DHT22;15009;53.082;8.768;2022-07-06T15:32:53;22.40;83.40
27573;DHT22;15009;53.082;8.768;2022-07-06T15:35:54;22.10;83.30
27573;DHT22;15009;53.082;8.768;2022-07-06T15:38:54;21.80;84.20
27573;DHT22;15009;53.082;8.768;2022-07-06T15:41:55;21.70;84.30
27573;DHT22;15009;53.082;8.768;2022-07-06T15:44:55;21.60;84.70
27573;DHT22;15009;53.082;8.768;2022-07-06T15:47:56;21.60;85.10
27573;DHT22;15009;53.082;8.768;2022-07-06T15:50:58;21.90;85.70
27573;DHT22;15009;53.082;8.768;2022-07-06T15:53:58;21.90;85.70
27573;DHT22;15009;53.082;8.768;2022-07-06T15:56:59;22.00;86.00
27573;DHT22;15009;53.082;8.768;2022-07-06T16:00:00;22.10;85.10
27573;DHT22;15009;53.082;8.768;2022-07-06T16:03:00;22.20;85.50
27573;DHT22;15009;53.082;8.768;2022-07-06T16:06:29;21.70;86.20
27573;DHT22;15009;53.082;8.768;2022-07-06T16:09:29;21.60;86.70
27573;DHT22;15009;53.082;8.768;2022-07-06T16:12:30;21.50;87.50
27573;DHT22;15009;53.082;8.768;2022-07-06T16:15:30;21.50;87.80
27573;DHT22;15009;53.082;8.768;2022-07-06T16:18:31;21.70;87.90
27573;DHT22;15009;53.082;8.768;2022-07-06T16:21:32;21.60;87.80
27573;DHT22;15009;53.082;8.768;2022-07-06T16:24:32;21.50;88.90
27573;DHT22;15009;53.082;8.768;2022-07-06T16:27:33;21.30;88.30
27573;DHT22;15009;53.082;8.768;2022-07-06T16:30:34;21.30;88.90
27573;DHT22;15009;53.082;8.768;2022-07-06T16:33:35;21.10;89.20
27573;DHT22;15009;53.082;8.768;2022-07-06T16:36:36;21.00;89.90
27573;DHT22;15009;53.082;8.768;2022-07-06T16:39:37;21.00;89.80
27573;DHT22;15009;53.082;8.768;2022-07-06T16:42:38;20.80;90.00
27573;DHT22;15009;53.082;8.768;2022-07-06T16:45:39;21.00;89.70
27573;DHT22;15009;53.082;8.768;2022-07-06T16:48:39;21.10;89.20
27573;DHT22;15009;53.082;8.768;2022-07-06T16:51:40;21.10;88.90
27573;DHT22;15009;53.082;8.768;2022-07-06T16:54:40;21.20;89.30
27573;DHT22;15009;53.082;8.768;2022-07-06T16:57:41;21.30;89.40
27573;DHT22;15009;53.082;8.768;2022-07-06T17:00:44;21.30;88.00
27573;DHT22;15009;53.082;8.768;2022-07-06T17:03:45;20.90;88.50
27573;DHT22;15009;53.082;8.768;2022-07-06T17:06:46;21.00;89.40
27573;DHT22;15009;53.082;8.768;2022-07-06T17:09:46;21.00;89.40
27573;DHT22;15009;53.082;8.768;2022-07-06T17:12:47;20.90;90.10
27573;DHT22;15009;53.082;8.768;2022-07-06T17:15:47;20.50;90.50
27573;DHT22;15009;53.082;8.768;2022-07-06T17:18:48;20.60;90.80
27573;DHT22;15009;53.082;8.768;2022-07-06T17:21:49;20.80;90.90
27573;DHT22;15009;53.082;8.768;2022-07-06T17:24:50;20.60;90.90
27573;DHT22;15009;53.082;8.768;2022-07-06T17:27:50;20.50;90.90
27573;DHT22;15009;53.082;8.768;2022-07-06T17:30:51;20.50;91.00
27573;DHT22;15009;53.082;8.768;2022-07-06T17:33:52;20.30;91.10
27573;DHT22;15009;53.082;8.768;2022-07-06T17:36:53;20.20;91.70
27573;DHT22;15009;53.082;8.768;2022-07-06T17:39:53;20.20;91.90
27573;DHT22;15009;53.082;8.768;2022-07-06T17:42:54;20.30;92.40
27573;DHT22;15009;53.082;8.768;2022-07-06T17:45:55;20.10;93.00
27573;DHT22;15009;53.082;8.768;2022-07-06T17:48:55;20.30;93.30
27573;DHT22;15009;53.082;8.768;2022-07-06T17:51:56;20.30;93.40
27573;DHT22;15009;53.082;8.768;2022-07-06T17:54:56;20.10;93.80
27573;DHT22;15009;53.082;8.768;2022-07-06T17:57:57;20.10;94.00
27573;DHT22;15009;53.082;8.768;2022-07-06T18:00:58;19.60;94.80
27573;DHT22;15009;53.082;8.768;2022-07-06T18:03:58;19.70;95.10
27573;DHT22;15009;53.082;8.768;2022-07-06T18:06:59;19.70;95.00
27573;DHT22;15009;53.082;8.768;2022-07-06T18:09:59;19.30;95.20
27573;DHT22;15009;53.082;8.768;2022-07-06T18:13:00;19.30;95.30
27573;DHT22;15009;53.082;8.768;2022-07-06T18:16:02;19.50;95.30
27573;DHT22;15009;53.082;8.768;2022-07-06T18:19:03;19.40;95.40
27573;DHT22;15009;53.082;8.768;2022-07-06T18:22:03;19.50;95.50
27573;DHT22;15009;53.082;8.768;2022-07-06T18:25:04;19.40;95.50
27573;DHT22;15009;53.082;8.768;2022-07-06T18:28:05;19.30;95.70
27573;DHT22;15009;53.082;8.768;2022-07-06T18:31:06;19.30;96.00
27573;DHT22;15009;53.082;8.768;2022-07-06T18:34:06;19.10;96.20
27573;DHT22;15009;53.082;8.768;2022-07-06T18:37:07;19.10;96.60
27573;DHT22;15009;53.082;8.768;2022-07-06T18:40:08;19.20;96.50
27573;DHT22;15009;53.082;8.768;2022-07-06T18:43:09;19.20;96.60
27573;DHT22;15009;53.082;8.768;2022-07-06T18:46:11;19.20;96.60
27573;DHT22;15009;53.082;8.768;2022-07-06T18:49:11;19.20;96.50
27573;DHT22;15009;53.082;8.768;2022-07-06T18:52:13;19.30;96.70
27573;DHT22;15009;53.082;8.768;2022-07-06T18:55:14;19.00;97.20
27573;DHT22;15009;53.082;8.768;2022-07-06T18:58:15;19.00;97.40
27573;DHT22;15009;53.082;8.768;2022-07-06T19:01:17;18.80;97.80
27573;DHT22;15009;53.082;8.768;2022-07-06T19:04:18;18.60;98.30
27573;DHT22;15009;53.082;8.768;2022-07-06T19:07:18;18.60;98.80
27573;DHT22;15009;53.082;8.768;2022-07-06T19:10:19;18.90;99.10